sensor_id;sensor_type;location;lat;lon;timestamp;P1;durP1;ratioP1;P2;durP2;ratioP2
71965;SDS011;59836;52.132;5.442;2023-07-22T00:01:30;8.40;;;4.53;;
71965;SDS011;59836;52.132;5.442;2023-07-22T00:03:58;7.55;;;4.88;;
71965;SDS011;59836;52.132;5.442;2023-07-22T00:06:36;8.82;;;4.70;;
71965;SDS011;59836;52.132;5.442;2023-07-22T00:09:08;8.43;;;4.50;;
71965;SDS011;59836;52.132;5.442;2023-07-22T00:11:48;7.95;;;4.00;;
71965;SDS011;59836;52.132;5.442;2023-07-22T00:16:59;8.52;;;4.82;;
71965;SDS011;59836;52.132;5.442;2023-07-22T00:19:33;9.32;;;5.40;;
71965;SDS011;59836;52.132;5.442;2023-07-22T00:22:00;6.82;;;4.22;;
71965;SDS011;59836;52.132;5.442;2023-07-22T00:24:32;9.13;;;4.82;;
71965;SDS011;59836;52.132;5.442;2023-07-22T00:26:58;8.90;;;4.87;;
71965;SDS011;59836;52.132;5.442;2023-07-22T00:29:28;7.20;;;4.22;;
71965;SDS011;59836;52.132;5.442;2023-07-22T00:34:29;9.02;;;4.72;;
71965;SDS011;59836;52.132;5.442;2023-07-22T00:37:07;7.72;;;4.35;;
71965;SDS011;59836;52.132;5.442;2023-07-22T00:39:33;8.67;;;4.50;;
71965;SDS011;59836;52.132;5.442;2023-07-22T00:42:00;7.53;;;4.13;;
71965;SDS011;59836;52.132;5.442;2023-07-22T00:44:27;8.18;;;4.60;;
71965;SDS011;59836;52.132;5.442;2023-07-22T00:46:54;9.45;;;4.78;;
71965;SDS011;59836;52.132;5.442;2023-07-22T00:49:25;10.10;;;5.05;;
71965;SDS011;59836;52.132;5.442;2023-07-22T00:51:53;7.93;;;4.57;;
71965;SDS011;59836;52.132;5.442;2023-07-22T00:54:20;8.57;;;5.07;;
71965;SDS011;59836;52.132;5.442;2023-07-22T00:56:47;9.40;;;4.97;;
71965;SDS011;59836;52.132;5.442;2023-07-22T00:59:13;8.27;;;4.55;;
71965;SDS011;59836;52.132;5.442;2023-07-22T01:01:41;9.30;;;5.10;;
71965;SDS011;59836;52.132;5.442;2023-07-22T01:04:08;10.00;;;4.80;;
71965;SDS011;59836;52.132;5.442;2023-07-22T01:06:34;10.63;;;5.32;;
71965;SDS011;59836;52.132;5.442;2023-07-22T01:09:01;9.35;;;5.47;;
71965;SDS011;59836;52.132;5.442;2023-07-22T01:11:28;10.98;;;5.70;;
71965;SDS011;59836;52.132;5.442;2023-07-22T01:13:54;9.30;;;5.20;;
71965;SDS011;59836;52.132;5.442;2023-07-22T01:16:25;9.00;;;5.00;;
71965;SDS011;59836;52.132;5.442;2023-07-22T01:18:53;9.77;;;4.68;;
71965;SDS011;59836;52.132;5.442;2023-07-22T01:23:51;8.43;;;5.20;;
71965;SDS011;59836;52.132;5.442;2023-07-22T01:26:18;9.77;;;5.20;;
71965;SDS011;59836;52.132;5.442;2023-07-22T01:31:37;10.55;;;6.03;;
71965;SDS011;59836;52.132;5.442;2023-07-22T01:34:04;10.15;;;5.63;;
71965;SDS011;59836;52.132;5.442;2023-07-22T01:36:32;9.32;;;5.05;;
71965;SDS011;59836;52.132;5.442;2023-07-22T01:39:04;12.23;;;5.55;;
71965;SDS011;59836;52.132;5.442;2023-07-22T01:41:41;10.50;;;5.80;;
71965;SDS011;59836;52.132;5.442;2023-07-22T01:44:08;12.45;;;6.03;;
71965;SDS011;59836;52.132;5.442;2023-07-22T01:46:53;10.00;;;5.90;;
71965;SDS011;59836;52.132;5.442;2023-07-22T01:49:23;10.75;;;5.68;;
71965;SDS011;59836;52.132;5.442;2023-07-22T01:51:55;12.00;;;6.00;;
71965;SDS011;59836;52.132;5.442;2023-07-22T01:54:22;11.93;;;6.07;;
71965;SDS011;59836;52.132;5.442;2023-07-22T01:56:49;11.02;;;5.10;;
71965;SDS011;59836;52.132;5.442;2023-07-22T02:02:22;13.13;;;6.22;;
71965;SDS011;59836;52.132;5.442;2023-07-22T02:04:58;13.30;;;6.55;;
71965;SDS011;59836;52.132;5.442;2023-07-22T02:07:24;13.03;;;6.73;;
71965;SDS011;59836;52.132;5.442;2023-07-22T02:09:54;11.90;;;6.05;;
71965;SDS011;59836;52.132;5.442;2023-07-22T02:12:21;13.90;;;7.80;;
71965;SDS011;59836;52.132;5.442;2023-07-22T02:17:19;11.82;;;6.10;;
71965;SDS011;59836;52.132;5.442;2023-07-22T02:19:46;14.93;;;6.57;;
71965;SDS011;59836;52.132;5.442;2023-07-22T02:22:13;13.27;;;6.88;;
71965;SDS011;59836;52.132;5.442;2023-07-22T02:24:40;12.23;;;6.80;;
71965;SDS011;59836;52.132;5.442;2023-07-22T02:27:06;10.20;;;6.18;;
71965;SDS011;59836;52.132;5.442;2023-07-22T02:29:36;12.52;;;6.75;;
71965;SDS011;59836;52.132;5.442;2023-07-22T02:32:03;11.07;;;5.73;;
71965;SDS011;59836;52.132;5.442;2023-07-22T02:34:30;11.10;;;6.28;;
71965;SDS011;59836;52.132;5.442;2023-07-22T02:36:57;13.50;;;6.75;;
71965;SDS011;59836;52.132;5.442;2023-07-22T02:39:23;12.32;;;6.55;;
71965;SDS011;59836;52.132;5.442;2023-07-22T02:41:50;13.20;;;7.00;;
71965;SDS011;59836;52.132;5.442;2023-07-22T02:44:26;11.87;;;6.40;;
71965;SDS011;59836;52.132;5.442;2023-07-22T02:46:53;10.65;;;6.38;;
71965;SDS011;59836;52.132;5.442;2023-07-22T02:49:20;14.38;;;6.47;;
71965;SDS011;59836;52.132;5.442;2023-07-22T02:51:47;12.48;;;6.90;;
71965;SDS011;59836;52.132;5.442;2023-07-22T02:54:14;13.65;;;7.13;;
71965;SDS011;59836;52.132;5.442;2023-07-22T02:56:40;12.43;;;6.47;;
71965;SDS011;59836;52.132;5.442;2023-07-22T02:59:09;12.35;;;6.43;;
71965;SDS011;59836;52.132;5.442;2023-07-22T03:01:50;12.57;;;7.00;;
71965;SDS011;59836;52.132;5.442;2023-07-22T03:04:17;14.32;;;6.63;;
71965;SDS011;59836;52.132;5.442;2023-07-22T03:06:44;12.95;;;6.60;;
71965;SDS011;59836;52.132;5.442;2023-07-22T03:09:11;13.97;;;7.20;;
71965;SDS011;59836;52.132;5.442;2023-07-22T03:11:38;12.80;;;6.80;;
71965;SDS011;59836;52.132;5.442;2023-07-22T03:14:05;13.18;;;6.68;;
71965;SDS011;59836;52.132;5.442;2023-07-22T03:16:32;11.90;;;6.80;;
71965;SDS011;59836;52.132;5.442;2023-07-22T03:18:59;13.40;;;6.43;;
71965;SDS011;59836;52.132;5.442;2023-07-22T03:21:33;14.33;;;6.43;;
71965;SDS011;59836;52.132;5.442;2023-07-22T03:24:00;13.00;;;6.40;;
71965;SDS011;59836;52.132;5.442;2023-07-22T03:26:27;13.02;;;7.43;;
71965;SDS011;59836;52.132;5.442;2023-07-22T03:28:54;15.77;;;7.63;;
71965;SDS011;59836;52.132;5.442;2023-07-22T03:31:21;14.77;;;7.20;;
71965;SDS011;59836;52.132;5.442;2023-07-22T03:33:50;15.17;;;7.43;;
71965;SDS011;59836;52.132;5.442;2023-07-22T03:36:18;16.63;;;7.53;;
71965;SDS011;59836;52.132;5.442;2023-07-22T03:44:19;13.70;;;7.30;;
71965;SDS011;59836;52.132;5.442;2023-07-22T03:46:48;14.63;;;7.60;;
71965;SDS011;59836;52.132;5.442;2023-07-22T03:49:15;15.90;;;7.50;;
71965;SDS011;59836;52.132;5.442;2023-07-22T03:51:58;15.25;;;7.75;;
71965;SDS011;59836;52.132;5.442;2023-07-22T03:54:24;15.68;;;7.72;;
71965;SDS011;59836;52.132;5.442;2023-07-22T03:57:01;15.35;;;7.65;;
71965;SDS011;59836;52.132;5.442;2023-07-22T03:59:29;14.70;;;7.90;;
71965;SDS011;59836;52.132;5.442;2023-07-22T04:01:56;15.13;;;7.28;;
71965;SDS011;59836;52.132;5.442;2023-07-22T04:04:28;15.07;;;7.43;;
71965;SDS011;59836;52.132;5.442;2023-07-22T04:09:30;17.58;;;8.13;;
71965;SDS011;59836;52.132;5.442;2023-07-22T04:14:51;16.00;;;8.18;;
71965;SDS011;59836;52.132;5.442;2023-07-22T04:17:23;15.27;;;8.18;;
71965;SDS011;59836;52.132;5.442;2023-07-22T04:19:51;15.13;;;7.68;;
71965;SDS011;59836;52.132;5.442;2023-07-22T04:22:18;13.90;;;7.28;;
71965;SDS011;59836;52.132;5.442;2023-07-22T04:24:56;14.93;;;7.57;;
71965;SDS011;59836;52.132;5.442;2023-07-22T04:27:23;15.65;;;7.50;;
71965;SDS011;59836;52.132;5.442;2023-07-22T04:29:50;16.10;;;8.00;;
71965;SDS011;59836;52.132;5.442;2023-07-22T04:35:02;15.35;;;7.68;;
71965;SDS011;59836;52.132;5.442;2023-07-22T04:37:29;15.50;;;7.53;;
71965;SDS011;59836;52.132;5.442;2023-07-22T04:39:58;14.82;;;7.20;;
71965;SDS011;59836;52.132;5.442;2023-07-22T04:42:25;14.73;;;7.43;;
71965;SDS011;59836;52.132;5.442;2023-07-22T04:44:58;17.05;;;8.68;;
71965;SDS011;59836;52.132;5.442;2023-07-22T04:47:32;16.85;;;7.70;;
71965;SDS011;59836;52.132;5.442;2023-07-22T04:49:59;16.67;;;8.00;;
71965;SDS011;59836;52.132;5.442;2023-07-22T04:55:21;16.42;;;8.23;;
71965;SDS011;59836;52.132;5.442;2023-07-22T04:58:02;19.73;;;8.73;;
71965;SDS011;59836;52.132;5.442;2023-07-22T05:00:32;17.27;;;8.13;;
71965;SDS011;59836;52.132;5.442;2023-07-22T05:03:00;16.67;;;7.90;;
71965;SDS011;59836;52.132;5.442;2023-07-22T05:05:31;17.30;;;8.23;;
71965;SDS011;59836;52.132;5.442;2023-07-22T05:08:05;18.15;;;8.50;;
71965;SDS011;59836;52.132;5.442;2023-07-22T05:10:37;17.85;;;8.02;;
71965;SDS011;59836;52.132;5.442;2023-07-22T05:15:52;16.67;;;7.90;;
71965;SDS011;59836;52.132;5.442;2023-07-22T05:18:21;18.58;;;8.38;;
71965;SDS011;59836;52.132;5.442;2023-07-22T05:20:47;17.60;;;8.27;;
71965;SDS011;59836;52.132;5.442;2023-07-22T05:23:14;17.17;;;7.65;;
71965;SDS011;59836;52.132;5.442;2023-07-22T05:25:43;22.60;;;9.55;;
71965;SDS011;59836;52.132;5.442;2023-07-22T05:28:12;17.23;;;7.90;;
71965;SDS011;59836;52.132;5.442;2023-07-22T05:30:44;19.02;;;8.05;;
71965;SDS011;59836;52.132;5.442;2023-07-22T05:33:13;19.15;;;9.05;;
71965;SDS011;59836;52.132;5.442;2023-07-22T05:35:39;17.58;;;8.35;;
71965;SDS011;59836;52.132;5.442;2023-07-22T05:38:12;20.85;;;8.93;;
71965;SDS011;59836;52.132;5.442;2023-07-22T05:40:47;22.10;;;8.10;;
71965;SDS011;59836;52.132;5.442;2023-07-22T05:43:18;18.77;;;8.02;;
71965;SDS011;59836;52.132;5.442;2023-07-22T05:45:52;19.77;;;8.82;;
71965;SDS011;59836;52.132;5.442;2023-07-22T05:48:28;19.15;;;8.73;;
71965;SDS011;59836;52.132;5.442;2023-07-22T05:50:56;19.10;;;8.82;;
71965;SDS011;59836;52.132;5.442;2023-07-22T05:53:33;22.50;;;9.23;;
71965;SDS011;59836;52.132;5.442;2023-07-22T05:58:43;20.58;;;8.70;;
71965;SDS011;59836;52.132;5.442;2023-07-22T06:01:15;19.67;;;8.88;;
71965;SDS011;59836;52.132;5.442;2023-07-22T06:03:42;20.35;;;9.18;;
71965;SDS011;59836;52.132;5.442;2023-07-22T06:06:10;19.53;;;9.10;;
71965;SDS011;59836;52.132;5.442;2023-07-22T06:08:43;17.73;;;8.38;;
71965;SDS011;59836;52.132;5.442;2023-07-22T06:11:23;19.50;;;9.02;;
71965;SDS011;59836;52.132;5.442;2023-07-22T06:13:52;18.30;;;9.23;;
71965;SDS011;59836;52.132;5.442;2023-07-22T06:16:23;20.73;;;9.60;;
71965;SDS011;59836;52.132;5.442;2023-07-22T06:18:52;21.47;;;9.50;;
71965;SDS011;59836;52.132;5.442;2023-07-22T06:21:19;20.75;;;9.48;;
71965;SDS011;59836;52.132;5.442;2023-07-22T06:23:47;19.90;;;9.18;;
71965;SDS011;59836;52.132;5.442;2023-07-22T06:26:16;20.48;;;9.07;;
71965;SDS011;59836;52.132;5.442;2023-07-22T06:28:49;23.27;;;10.40;;
71965;SDS011;59836;52.132;5.442;2023-07-22T06:31:16;22.00;;;9.03;;
71965;SDS011;59836;52.132;5.442;2023-07-22T06:33:45;24.27;;;9.45;;
71965;SDS011;59836;52.132;5.442;2023-07-22T06:36:13;19.30;;;9.23;;
71965;SDS011;59836;52.132;5.442;2023-07-22T06:38:40;22.27;;;9.88;;
71965;SDS011;59836;52.132;5.442;2023-07-22T06:41:10;19.60;;;9.25;;
71965;SDS011;59836;52.132;5.442;2023-07-22T06:43:36;17.27;;;8.83;;
71965;SDS011;59836;52.132;5.442;2023-07-22T06:46:09;22.65;;;10.40;;
71965;SDS011;59836;52.132;5.442;2023-07-22T06:48:37;22.85;;;10.20;;
71965;SDS011;59836;52.132;5.442;2023-07-22T06:51:04;22.15;;;9.93;;
71965;SDS011;59836;52.132;5.442;2023-07-22T06:53:30;16.95;;;9.73;;
71965;SDS011;59836;52.132;5.442;2023-07-22T06:56:03;20.50;;;8.73;;
71965;SDS011;59836;52.132;5.442;2023-07-22T06:58:30;21.17;;;9.15;;
71965;SDS011;59836;52.132;5.442;2023-07-22T07:01:03;22.95;;;10.85;;
71965;SDS011;59836;52.132;5.442;2023-07-22T07:03:33;19.65;;;9.02;;
71965;SDS011;59836;52.132;5.442;2023-07-22T07:08:56;24.07;;;10.37;;
71965;SDS011;59836;52.132;5.442;2023-07-22T07:13:54;19.98;;;10.07;;
71965;SDS011;59836;52.132;5.442;2023-07-22T07:16:22;24.13;;;9.75;;
71965;SDS011;59836;52.132;5.442;2023-07-22T07:18:54;22.17;;;10.10;;
71965;SDS011;59836;52.132;5.442;2023-07-22T07:21:23;16.73;;;8.57;;
71965;SDS011;59836;52.132;5.442;2023-07-22T07:23:53;19.52;;;9.85;;
71965;SDS011;59836;52.132;5.442;2023-07-22T07:26:21;26.75;;;10.38;;
71965;SDS011;59836;52.132;5.442;2023-07-22T07:28:57;19.75;;;10.13;;
71965;SDS011;59836;52.132;5.442;2023-07-22T07:31:24;18.65;;;9.27;;
71965;SDS011;59836;52.132;5.442;2023-07-22T07:33:52;16.93;;;9.30;;
71965;SDS011;59836;52.132;5.442;2023-07-22T07:36:19;18.35;;;8.90;;
71965;SDS011;59836;52.132;5.442;2023-07-22T07:38:47;20.13;;;9.27;;
71965;SDS011;59836;52.132;5.442;2023-07-22T07:41:23;17.77;;;8.52;;
71965;SDS011;59836;52.132;5.442;2023-07-22T07:43:55;20.45;;;9.02;;
71965;SDS011;59836;52.132;5.442;2023-07-22T07:46:22;20.43;;;8.73;;
71965;SDS011;59836;52.132;5.442;2023-07-22T07:51:43;18.77;;;9.45;;
71965;SDS011;59836;52.132;5.442;2023-07-22T07:54:10;19.45;;;8.38;;
71965;SDS011;59836;52.132;5.442;2023-07-22T07:56:37;20.55;;;8.77;;
71965;SDS011;59836;52.132;5.442;2023-07-22T07:59:08;15.00;;;7.30;;
71965;SDS011;59836;52.132;5.442;2023-07-22T08:05:07;19.75;;;8.00;;
71965;SDS011;59836;52.132;5.442;2023-07-22T08:07:43;15.52;;;7.75;;
71965;SDS011;59836;52.132;5.442;2023-07-22T08:10:18;17.70;;;7.97;;
71965;SDS011;59836;52.132;5.442;2023-07-22T08:12:45;15.27;;;7.43;;
71965;SDS011;59836;52.132;5.442;2023-07-22T08:15:28;14.40;;;7.85;;
71965;SDS011;59836;52.132;5.442;2023-07-22T08:17:59;14.43;;;7.25;;
71965;SDS011;59836;52.132;5.442;2023-07-22T08:23:44;14.80;;;6.85;;
71965;SDS011;59836;52.132;5.442;2023-07-22T08:26:16;11.80;;;6.77;;
71965;SDS011;59836;52.132;5.442;2023-07-22T08:28:54;16.02;;;7.15;;
71965;SDS011;59836;52.132;5.442;2023-07-22T08:34:20;15.55;;;7.05;;
71965;SDS011;59836;52.132;5.442;2023-07-22T08:36:48;15.35;;;7.32;;
71965;SDS011;59836;52.132;5.442;2023-07-22T08:39:18;13.03;;;6.77;;
71965;SDS011;59836;52.132;5.442;2023-07-22T08:41:47;11.05;;;5.57;;
71965;SDS011;59836;52.132;5.442;2023-07-22T08:47:15;12.68;;;5.80;;
71965;SDS011;59836;52.132;5.442;2023-07-22T08:49:43;10.43;;;5.18;;
71965;SDS011;59836;52.132;5.442;2023-07-22T08:52:17;9.23;;;5.23;;
71965;SDS011;59836;52.132;5.442;2023-07-22T09:02:43;13.02;;;7.15;;
71965;SDS011;59836;52.132;5.442;2023-07-22T09:10:55;10.52;;;5.88;;
71965;SDS011;59836;52.132;5.442;2023-07-22T09:13:30;10.77;;;5.70;;
71965;SDS011;59836;52.132;5.442;2023-07-22T09:15:59;9.18;;;4.72;;
71965;SDS011;59836;52.132;5.442;2023-07-22T09:18:28;8.87;;;4.50;;
71965;SDS011;59836;52.132;5.442;2023-07-22T09:21:06;11.10;;;5.05;;
71965;SDS011;59836;52.132;5.442;2023-07-22T09:23:35;10.07;;;3.88;;
71965;SDS011;59836;52.132;5.442;2023-07-22T09:28:49;9.98;;;3.92;;
71965;SDS011;59836;52.132;5.442;2023-07-22T09:31:21;5.57;;;3.60;;
71965;SDS011;59836;52.132;5.442;2023-07-22T09:33:49;8.88;;;3.90;;
71965;SDS011;59836;52.132;5.442;2023-07-22T09:36:17;7.32;;;3.63;;
71965;SDS011;59836;52.132;5.442;2023-07-22T09:38:44;6.28;;;3.63;;
71965;SDS011;59836;52.132;5.442;2023-07-22T09:41:10;8.82;;;4.05;;
71965;SDS011;59836;52.132;5.442;2023-07-22T09:43:38;9.63;;;4.17;;
71965;SDS011;59836;52.132;5.442;2023-07-22T09:46:05;6.97;;;3.53;;
71965;SDS011;59836;52.132;5.442;2023-07-22T09:48:51;8.55;;;3.97;;
71965;SDS011;59836;52.132;5.442;2023-07-22T09:51:19;5.85;;;4.55;;
71965;SDS011;59836;52.132;5.442;2023-07-22T09:53:59;9.60;;;5.35;;
71965;SDS011;59836;52.132;5.442;2023-07-22T09:56:27;7.63;;;4.10;;
71965;SDS011;59836;52.132;5.442;2023-07-22T10:04:37;10.30;;;3.97;;
71965;SDS011;59836;52.132;5.442;2023-07-22T10:07:06;7.35;;;4.55;;
71965;SDS011;59836;52.132;5.442;2023-07-22T10:09:34;5.83;;;4.00;;
71965;SDS011;59836;52.132;5.442;2023-07-22T10:12:06;5.50;;;3.88;;
71965;SDS011;59836;52.132;5.442;2023-07-22T10:14:48;8.40;;;4.13;;
71965;SDS011;59836;52.132;5.442;2023-07-22T10:17:17;8.35;;;4.32;;
71965;SDS011;59836;52.132;5.442;2023-07-22T10:19:44;8.07;;;4.40;;
71965;SDS011;59836;52.132;5.442;2023-07-22T10:22:13;9.87;;;4.53;;
71965;SDS011;59836;52.132;5.442;2023-07-22T10:24:40;7.97;;;4.50;;
71965;SDS011;59836;52.132;5.442;2023-07-22T10:30:12;8.95;;;4.13;;
71965;SDS011;59836;52.132;5.442;2023-07-22T10:40:44;9.30;;;4.32;;
71965;SDS011;59836;52.132;5.442;2023-07-22T10:43:16;6.45;;;3.40;;
71965;SDS011;59836;52.132;5.442;2023-07-22T10:45:54;6.75;;;3.53;;
71965;SDS011;59836;52.132;5.442;2023-07-22T10:48:25;4.37;;;2.57;;
71965;SDS011;59836;52.132;5.442;2023-07-22T10:51:04;5.70;;;2.78;;
71965;SDS011;59836;52.132;5.442;2023-07-22T10:53:37;4.70;;;2.78;;
71965;SDS011;59836;52.132;5.442;2023-07-22T11:01:34;5.67;;;2.97;;
71965;SDS011;59836;52.132;5.442;2023-07-22T11:06:41;8.13;;;3.30;;
71965;SDS011;59836;52.132;5.442;2023-07-22T11:14:27;4.03;;;2.97;;
71965;SDS011;59836;52.132;5.442;2023-07-22T11:19:38;7.43;;;3.40;;
71965;SDS011;59836;52.132;5.442;2023-07-22T11:22:05;4.20;;;2.40;;
71965;SDS011;59836;52.132;5.442;2023-07-22T11:24:33;3.72;;;3.08;;
71965;SDS011;59836;52.132;5.442;2023-07-22T11:27:06;7.23;;;3.27;;
71965;SDS011;59836;52.132;5.442;2023-07-22T11:29:35;5.55;;;3.08;;
71965;SDS011;59836;52.132;5.442;2023-07-22T11:32:03;4.75;;;2.67;;
71965;SDS011;59836;52.132;5.442;2023-07-22T11:34:50;7.40;;;3.13;;
71965;SDS011;59836;52.132;5.442;2023-07-22T11:37:22;5.40;;;3.88;;
71965;SDS011;59836;52.132;5.442;2023-07-22T11:40:05;7.03;;;4.17;;
71965;SDS011;59836;52.132;5.442;2023-07-22T11:42:37;6.40;;;3.05;;
71965;SDS011;59836;52.132;5.442;2023-07-22T11:45:04;6.45;;;3.45;;
71965;SDS011;59836;52.132;5.442;2023-07-22T11:47:32;5.75;;;3.03;;
71965;SDS011;59836;52.132;5.442;2023-07-22T11:50:00;5.15;;;2.92;;
71965;SDS011;59836;52.132;5.442;2023-07-22T11:52:27;4.93;;;2.90;;
71965;SDS011;59836;52.132;5.442;2023-07-22T11:57:28;5.07;;;3.15;;
71965;SDS011;59836;52.132;5.442;2023-07-22T11:59:56;3.75;;;2.38;;
71965;SDS011;59836;52.132;5.442;2023-07-22T12:02:23;6.80;;;2.92;;
71965;SDS011;59836;52.132;5.442;2023-07-22T12:05:04;5.60;;;2.63;;
71965;SDS011;59836;52.132;5.442;2023-07-22T12:07:36;5.80;;;2.92;;
71965;SDS011;59836;52.132;5.442;2023-07-22T12:10:05;6.60;;;2.70;;
71965;SDS011;59836;52.132;5.442;2023-07-22T12:12:40;4.65;;;2.63;;
71965;SDS011;59836;52.132;5.442;2023-07-22T12:15:15;7.55;;;3.15;;
71965;SDS011;59836;52.132;5.442;2023-07-22T12:23:23;5.60;;;3.00;;
71965;SDS011;59836;52.132;5.442;2023-07-22T12:31:20;3.33;;;2.50;;
71965;SDS011;59836;52.132;5.442;2023-07-22T12:34:02;4.43;;;2.10;;
71965;SDS011;59836;52.132;5.442;2023-07-22T12:36:30;4.80;;;2.90;;
71965;SDS011;59836;52.132;5.442;2023-07-22T12:38:57;5.70;;;2.22;;
71965;SDS011;59836;52.132;5.442;2023-07-22T12:41:23;4.15;;;2.78;;
71965;SDS011;59836;52.132;5.442;2023-07-22T12:43:50;4.20;;;2.73;;
71965;SDS011;59836;52.132;5.442;2023-07-22T12:46:18;4.35;;;2.83;;
71965;SDS011;59836;52.132;5.442;2023-07-22T12:48:57;4.35;;;2.70;;
71965;SDS011;59836;52.132;5.442;2023-07-22T12:51:24;4.18;;;2.10;;
71965;SDS011;59836;52.132;5.442;2023-07-22T12:53:52;4.75;;;2.80;;
71965;SDS011;59836;52.132;5.442;2023-07-22T12:56:19;3.33;;;2.40;;
71965;SDS011;59836;52.132;5.442;2023-07-22T12:58:45;4.88;;;2.60;;
71965;SDS011;59836;52.132;5.442;2023-07-22T13:01:12;4.10;;;2.95;;
71965;SDS011;59836;52.132;5.442;2023-07-22T13:03:39;5.90;;;2.88;;
71965;SDS011;59836;52.132;5.442;2023-07-22T13:06:07;4.57;;;2.67;;
71965;SDS011;59836;52.132;5.442;2023-07-22T13:08:39;5.93;;;3.00;;
71965;SDS011;59836;52.132;5.442;2023-07-22T13:11:05;5.78;;;3.13;;
71965;SDS011;59836;52.132;5.442;2023-07-22T13:13:43;4.55;;;2.90;;
71965;SDS011;59836;52.132;5.442;2023-07-22T13:16:11;6.32;;;3.67;;
71965;SDS011;59836;52.132;5.442;2023-07-22T13:18:38;6.30;;;3.67;;
71965;SDS011;59836;52.132;5.442;2023-07-22T13:21:07;6.63;;;3.23;;
71965;SDS011;59836;52.132;5.442;2023-07-22T13:23:34;4.07;;;3.33;;
71965;SDS011;59836;52.132;5.442;2023-07-22T13:33:07;6.20;;;3.63;;
71965;SDS011;59836;52.132;5.442;2023-07-22T13:35:34;7.70;;;3.93;;
71965;SDS011;59836;52.132;5.442;2023-07-22T13:38:04;6.95;;;3.60;;
71965;SDS011;59836;52.132;5.442;2023-07-22T13:40:31;5.65;;;3.53;;
71965;SDS011;59836;52.132;5.442;2023-07-22T13:42:59;5.03;;;3.42;;
71965;SDS011;59836;52.132;5.442;2023-07-22T13:45:35;4.10;;;3.20;;
71965;SDS011;59836;52.132;5.442;2023-07-22T13:48:02;4.90;;;2.67;;
71965;SDS011;59836;52.132;5.442;2023-07-22T13:50:31;6.18;;;2.60;;
71965;SDS011;59836;52.132;5.442;2023-07-22T13:53:07;4.60;;;2.47;;
71965;SDS011;59836;52.132;5.442;2023-07-22T13:58:42;4.32;;;1.90;;
71965;SDS011;59836;52.132;5.442;2023-07-22T14:01:09;4.27;;;1.97;;
71965;SDS011;59836;52.132;5.442;2023-07-22T14:03:42;3.72;;;2.08;;
71965;SDS011;59836;52.132;5.442;2023-07-22T14:06:10;3.50;;;2.55;;
71965;SDS011;59836;52.132;5.442;2023-07-22T14:08:36;4.10;;;1.40;;
71965;SDS011;59836;52.132;5.442;2023-07-22T14:11:03;3.85;;;1.92;;
71965;SDS011;59836;52.132;5.442;2023-07-22T14:13:40;3.43;;;1.60;;
71965;SDS011;59836;52.132;5.442;2023-07-22T14:16:06;3.25;;;1.73;;
71965;SDS011;59836;52.132;5.442;2023-07-22T14:18:47;6.72;;;2.38;;
71965;SDS011;59836;52.132;5.442;2023-07-22T14:21:14;2.78;;;1.70;;
71965;SDS011;59836;52.132;5.442;2023-07-22T14:23:47;2.67;;;1.30;;
71965;SDS011;59836;52.132;5.442;2023-07-22T14:26:14;3.50;;;1.73;;
71965;SDS011;59836;52.132;5.442;2023-07-22T14:28:42;3.45;;;2.13;;
71965;SDS011;59836;52.132;5.442;2023-07-22T14:31:09;3.35;;;1.52;;
71965;SDS011;59836;52.132;5.442;2023-07-22T14:33:40;3.00;;;1.55;;
71965;SDS011;59836;52.132;5.442;2023-07-22T14:36:16;3.03;;;1.95;;
71965;SDS011;59836;52.132;5.442;2023-07-22T14:44:21;3.67;;;1.65;;
71965;SDS011;59836;52.132;5.442;2023-07-22T14:47:03;4.18;;;1.70;;
71965;SDS011;59836;52.132;5.442;2023-07-22T14:49:37;3.92;;;1.80;;
71965;SDS011;59836;52.132;5.442;2023-07-22T14:52:08;2.63;;;1.60;;
71965;SDS011;59836;52.132;5.442;2023-07-22T14:54:37;2.67;;;1.45;;
71965;SDS011;59836;52.132;5.442;2023-07-22T14:57:05;3.40;;;1.80;;
71965;SDS011;59836;52.132;5.442;2023-07-22T14:59:34;2.70;;;1.67;;
71965;SDS011;59836;52.132;5.442;2023-07-22T15:02:01;2.70;;;1.70;;
71965;SDS011;59836;52.132;5.442;2023-07-22T15:04:29;5.83;;;1.57;;
71965;SDS011;59836;52.132;5.442;2023-07-22T15:06:57;3.05;;;1.67;;
71965;SDS011;59836;52.132;5.442;2023-07-22T15:09:24;2.47;;;1.75;;
71965;SDS011;59836;52.132;5.442;2023-07-22T15:11:51;2.83;;;1.70;;
71965;SDS011;59836;52.132;5.442;2023-07-22T15:14:17;3.80;;;2.30;;
71965;SDS011;59836;52.132;5.442;2023-07-22T15:16:44;2.70;;;1.37;;
71965;SDS011;59836;52.132;5.442;2023-07-22T15:19:12;5.78;;;1.95;;
71965;SDS011;59836;52.132;5.442;2023-07-22T15:21:38;3.60;;;1.90;;
71965;SDS011;59836;52.132;5.442;2023-07-22T15:24:05;2.35;;;1.70;;
71965;SDS011;59836;52.132;5.442;2023-07-22T15:26:31;4.97;;;1.92;;
71965;SDS011;59836;52.132;5.442;2023-07-22T15:28:58;4.57;;;1.20;;
71965;SDS011;59836;52.132;5.442;2023-07-22T15:31:25;3.05;;;2.25;;
71965;SDS011;59836;52.132;5.442;2023-07-22T15:33:52;2.90;;;1.90;;
71965;SDS011;59836;52.132;5.442;2023-07-22T15:36:26;2.75;;;1.70;;
71965;SDS011;59836;52.132;5.442;2023-07-22T15:38:52;4.38;;;2.10;;
71965;SDS011;59836;52.132;5.442;2023-07-22T15:44:24;3.63;;;1.55;;
71965;SDS011;59836;52.132;5.442;2023-07-22T15:46:54;3.00;;;1.77;;
71965;SDS011;59836;52.132;5.442;2023-07-22T15:49:26;3.72;;;1.60;;
71965;SDS011;59836;52.132;5.442;2023-07-22T15:54:24;3.43;;;1.60;;
71965;SDS011;59836;52.132;5.442;2023-07-22T15:56:51;4.40;;;2.10;;
71965;SDS011;59836;52.132;5.442;2023-07-22T15:59:20;4.18;;;2.15;;
71965;SDS011;59836;52.132;5.442;2023-07-22T16:01:54;4.00;;;2.15;;
71965;SDS011;59836;52.132;5.442;2023-07-22T16:04:21;4.35;;;2.00;;
71965;SDS011;59836;52.132;5.442;2023-07-22T16:09:34;2.25;;;1.55;;
71965;SDS011;59836;52.132;5.442;2023-07-22T16:12:02;4.72;;;1.98;;
71965;SDS011;59836;52.132;5.442;2023-07-22T16:14:29;3.10;;;1.60;;
71965;SDS011;59836;52.132;5.442;2023-07-22T16:16:56;5.63;;;2.10;;
71965;SDS011;59836;52.132;5.442;2023-07-22T16:19:22;2.53;;;1.77;;
71965;SDS011;59836;52.132;5.442;2023-07-22T16:21:53;4.47;;;2.03;;
71965;SDS011;59836;52.132;5.442;2023-07-22T16:24:20;6.13;;;2.00;;
71965;SDS011;59836;52.132;5.442;2023-07-22T16:27:00;3.45;;;1.90;;
71965;SDS011;59836;52.132;5.442;2023-07-22T16:29:38;3.45;;;2.03;;
71965;SDS011;59836;52.132;5.442;2023-07-22T16:32:05;2.20;;;1.40;;
71965;SDS011;59836;52.132;5.442;2023-07-22T16:34:33;3.20;;;1.70;;
71965;SDS011;59836;52.132;5.442;2023-07-22T16:37:00;3.72;;;2.03;;
71965;SDS011;59836;52.132;5.442;2023-07-22T16:39:27;3.30;;;1.55;;
71965;SDS011;59836;52.132;5.442;2023-07-22T16:41:54;3.45;;;1.90;;
71965;SDS011;59836;52.132;5.442;2023-07-22T16:44:21;2.97;;;1.67;;
71965;SDS011;59836;52.132;5.442;2023-07-22T16:46:48;5.18;;;2.08;;
71965;SDS011;59836;52.132;5.442;2023-07-22T16:49:17;2.90;;;1.70;;
71965;SDS011;59836;52.132;5.442;2023-07-22T16:51:43;4.22;;;1.95;;
71965;SDS011;59836;52.132;5.442;2023-07-22T16:54:10;4.40;;;2.08;;
71965;SDS011;59836;52.132;5.442;2023-07-22T16:59:13;5.40;;;2.30;;
71965;SDS011;59836;52.132;5.442;2023-07-22T17:01:41;4.15;;;2.38;;
71965;SDS011;59836;52.132;5.442;2023-07-22T17:04:08;3.10;;;2.10;;
71965;SDS011;59836;52.132;5.442;2023-07-22T17:06:34;3.63;;;2.50;;
71965;SDS011;59836;52.132;5.442;2023-07-22T17:09:01;3.97;;;2.07;;
71965;SDS011;59836;52.132;5.442;2023-07-22T17:11:29;4.28;;;2.90;;
71965;SDS011;59836;52.132;5.442;2023-07-22T17:13:58;4.00;;;2.08;;
71965;SDS011;59836;52.132;5.442;2023-07-22T17:16:25;3.03;;;2.20;;
71965;SDS011;59836;52.132;5.442;2023-07-22T17:18:51;4.85;;;2.35;;
71965;SDS011;59836;52.132;5.442;2023-07-22T17:21:22;3.07;;;2.03;;
71965;SDS011;59836;52.132;5.442;2023-07-22T17:23:48;4.18;;;2.30;;